sensor_id;sensor_type;location;lat;lon;timestamp;pressure;altitude;pressure_sealevel;temperature;humidity
69306;BME280;56427;51.580;4.656;2024-03-29T00:01:49;99031.59;;;9.66;72.35
69306;BME280;56427;51.580;4.656;2024-03-29T00:04:15;99035.56;;;9.59;73.05
69306;BME280;56427;51.580;4.656;2024-03-29T00:06:40;99025.69;;;9.64;72.51
69306;BME280;56427;51.580;4.656;2024-03-29T00:09:05;99035.25;;;9.64;72.87
69306;BME280;56427;51.580;4.656;2024-03-29T00:11:30;99028.06;;;9.67;72.55
69306;BME280;56427;51.580;4.656;2024-03-29T00:13:56;99034.09;;;9.68;72.37
69306;BME280;56427;51.580;4.656;2024-03-29T00:16:22;99032.19;;;9.70;72.12
69306;BME280;56427;51.580;4.656;2024-03-29T00:18:50;99048.22;;;9.75;71.55
69306;BME280;56427;51.580;4.656;2024-03-29T00:21:15;99037.50;;;9.80;71.62
69306;BME280;56427;51.580;4.656;2024-03-29T00:23:41;99043.88;;;9.76;71.68
69306;BME280;56427;51.580;4.656;2024-03-29T00:26:07;99047.03;;;9.79;71.67
69306;BME280;56427;51.580;4.656;2024-03-29T00:28:32;99055.38;;;9.71;72.17
69306;BME280;56427;51.580;4.656;2024-03-29T00:30:57;99045.34;;;9.67;72.04
69306;BME280;56427;51.580;4.656;2024-03-29T00:33:23;99053.72;;;9.70;71.95
69306;BME280;56427;51.580;4.656;2024-03-29T00:35:48;99049.72;;;9.66;71.81
69306;BME280;56427;51.580;4.656;2024-03-29T00:38:13;99047.34;;;9.63;71.96
69306;BME280;56427;51.580;4.656;2024-03-29T00:40:39;99050.28;;;9.59;72.29
69306;BME280;56427;51.580;4.656;2024-03-29T00:43:04;99056.41;;;9.58;72.40
69306;BME280;56427;51.580;4.656;2024-03-29T00:45:29;99057.34;;;9.57;72.26
69306;BME280;56427;51.580;4.656;2024-03-29T00:47:55;99063.53;;;9.54;72.20
69306;BME280;56427;51.580;4.656;2024-03-29T00:50:20;99058.88;;;9.59;72.01
69306;BME280;56427;51.580;4.656;2024-03-29T00:52:45;99061.06;;;9.53;71.98
69306;BME280;56427;51.580;4.656;2024-03-29T00:55:13;99059.44;;;9.52;72.44
69306;BME280;56427;51.580;4.656;2024-03-29T00:57:38;99052.97;;;9.57;71.80
69306;BME280;56427;51.580;4.656;2024-03-29T01:00:04;99052.25;;;9.55;72.08
69306;BME280;56427;51.580;4.656;2024-03-29T01:02:30;99043.53;;;9.45;72.71
69306;BME280;56427;51.580;4.656;2024-03-29T01:04:55;99048.44;;;9.37;73.22
69306;BME280;56427;51.580;4.656;2024-03-29T01:07:20;99054.06;;;9.42;72.88
69306;BME280;56427;51.580;4.656;2024-03-29T01:09:46;99045.94;;;9.35;73.06
69306;BME280;56427;51.580;4.656;2024-03-29T01:12:11;99041.50;;;9.37;72.84
69306;BME280;56427;51.580;4.656;2024-03-29T01:14:37;99034.00;;;9.45;72.50
69306;BME280;56427;51.580;4.656;2024-03-29T01:17:02;99035.88;;;9.43;72.03
69306;BME280;56427;51.580;4.656;2024-03-29T01:19:27;99029.75;;;9.44;71.94
69306;BME280;56427;51.580;4.656;2024-03-29T01:21:53;99024.47;;;9.46;71.85
69306;BME280;56427;51.580;4.656;2024-03-29T01:24:18;99028.00;;;9.45;72.03
69306;BME280;56427;51.580;4.656;2024-03-29T01:26:44;99024.13;;;9.51;71.29
69306;BME280;56427;51.580;4.656;2024-03-29T01:29:09;99026.09;;;9.47;71.50
69306;BME280;56427;51.580;4.656;2024-03-29T01:31:36;99028.00;;;9.45;71.66
69306;BME280;56427;51.580;4.656;2024-03-29T01:34:01;99028.63;;;9.36;71.73
69306;BME280;56427;51.580;4.656;2024-03-29T01:36:28;99021.59;;;9.38;71.63
69306;BME280;56427;51.580;4.656;2024-03-29T01:38:53;99019.84;;;9.38;71.38
69306;BME280;56427;51.580;4.656;2024-03-29T01:41:22;99018.28;;;9.36;71.64
69306;BME280;56427;51.580;4.656;2024-03-29T01:43:48;99021.25;;;9.42;71.39
69306;BME280;56427;51.580;4.656;2024-03-29T01:46:13;99035.00;;;9.32;71.56
69306;BME280;56427;51.580;4.656;2024-03-29T01:48:39;99030.31;;;9.37;71.35
69306;BME280;56427;51.580;4.656;2024-03-29T01:51:04;99020.44;;;9.42;70.88
69306;BME280;56427;51.580;4.656;2024-03-29T01:53:30;99031.28;;;9.47;70.52
69306;BME280;56427;51.580;4.656;2024-03-29T01:55:57;99020.81;;;9.49;70.46
69306;BME280;56427;51.580;4.656;2024-03-29T01:58:23;99011.41;;;9.48;70.23
69306;BME280;56427;51.580;4.656;2024-03-29T02:00:52;99024.25;;;9.49;70.43
69306;BME280;56427;51.580;4.656;2024-03-29T02:03:19;99014.84;;;9.59;69.65
69306;BME280;56427;51.580;4.656;2024-03-29T02:05:46;99015.34;;;9.64;68.95
69306;BME280;56427;51.580;4.656;2024-03-29T02:08:13;99030.75;;;9.66;68.96
69306;BME280;56427;51.580;4.656;2024-03-29T02:10:39;99044.81;;;9.75;68.29
69306;BME280;56427;51.580;4.656;2024-03-29T02:13:04;99037.25;;;9.71;68.68
69306;BME280;56427;51.580;4.656;2024-03-29T02:15:30;99043.00;;;9.64;69.54
69306;BME280;56427;51.580;4.656;2024-03-29T02:17:56;99043.97;;;9.74;68.48
69306;BME280;56427;51.580;4.656;2024-03-29T02:20:22;99043.88;;;9.76;68.35
69306;BME280;56427;51.580;4.656;2024-03-29T02:22:54;99051.63;;;9.76;68.81
69306;BME280;56427;51.580;4.656;2024-03-29T02:25:20;99054.19;;;9.64;69.46
69306;BME280;56427;51.580;4.656;2024-03-29T02:27:46;99054.97;;;9.54;70.17
69306;BME280;56427;51.580;4.656;2024-03-29T02:30:14;99050.97;;;9.50;70.16
69306;BME280;56427;51.580;4.656;2024-03-29T02:32:41;99039.16;;;9.45;70.70
69306;BME280;56427;51.580;4.656;2024-03-29T02:35:07;99037.19;;;9.49;70.66
69306;BME280;56427;51.580;4.656;2024-03-29T02:37:32;99048.00;;;9.54;70.25
69306;BME280;56427;51.580;4.656;2024-03-29T02:39:57;99043.13;;;9.62;69.83
69306;BME280;56427;51.580;4.656;2024-03-29T02:42:22;99036.72;;;9.90;67.37
69306;BME280;56427;51.580;4.656;2024-03-29T02:44:48;99039.19;;;9.92;67.49
69306;BME280;56427;51.580;4.656;2024-03-29T02:47:13;99034.69;;;9.83;68.95
69306;BME280;56427;51.580;4.656;2024-03-29T02:49:38;99042.06;;;9.65;69.45
69306;BME280;56427;51.580;4.656;2024-03-29T02:52:04;99046.63;;;9.61;69.75
69306;BME280;56427;51.580;4.656;2024-03-29T02:54:29;99044.28;;;9.58;69.77
69306;BME280;56427;51.580;4.656;2024-03-29T02:56:54;99058.28;;;9.56;70.36
69306;BME280;56427;51.580;4.656;2024-03-29T02:59:19;99050.88;;;9.62;70.23
69306;BME280;56427;51.580;4.656;2024-03-29T03:01:45;99055.72;;;9.67;69.66
69306;BME280;56427;51.580;4.656;2024-03-29T03:04:10;99077.25;;;9.67;69.93
69306;BME280;56427;51.580;4.656;2024-03-29T03:06:35;99066.47;;;9.85;68.97
69306;BME280;56427;51.580;4.656;2024-03-29T03:09:01;99051.88;;;9.84;69.30
69306;BME280;56427;51.580;4.656;2024-03-29T03:11:44;99049.63;;;9.79;69.70
69306;BME280;56427;51.580;4.656;2024-03-29T03:14:10;99058.22;;;9.80;69.82
69306;BME280;56427;51.580;4.656;2024-03-29T03:16:35;99060.59;;;9.83;69.58
69306;BME280;56427;51.580;4.656;2024-03-29T03:19:00;99068.25;;;9.84;69.86
69306;BME280;56427;51.580;4.656;2024-03-29T03:21:25;99085.56;;;9.84;69.68
69306;BME280;56427;51.580;4.656;2024-03-29T03:23:51;99071.41;;;9.77;71.18
69306;BME280;56427;51.580;4.656;2024-03-29T03:26:16;99077.03;;;9.70;72.81
69306;BME280;56427;51.580;4.656;2024-03-29T03:28:41;99075.22;;;9.60;74.25
69306;BME280;56427;51.580;4.656;2024-03-29T03:31:06;99083.53;;;9.52;75.90
69306;BME280;56427;51.580;4.656;2024-03-29T03:33:32;99078.94;;;9.44;77.27
69306;BME280;56427;51.580;4.656;2024-03-29T03:35:57;99089.09;;;9.35;79.39
69306;BME280;56427;51.580;4.656;2024-03-29T03:38:23;99089.25;;;9.21;82.59
69306;BME280;56427;51.580;4.656;2024-03-29T03:40:48;99096.53;;;9.03;88.25
69306;BME280;56427;51.580;4.656;2024-03-29T03:43:13;99097.31;;;8.79;93.58
69306;BME280;56427;51.580;4.656;2024-03-29T03:45:40;99115.75;;;8.75;95.10
69306;BME280;56427;51.580;4.656;2024-03-29T03:48:07;99107.38;;;8.58;99.67
69306;BME280;56427;51.580;4.656;2024-03-29T03:50:33;99114.41;;;8.56;99.61
69306;BME280;56427;51.580;4.656;2024-03-29T03:52:59;99121.81;;;8.48;100.00
69306;BME280;56427;51.580;4.656;2024-03-29T03:55:24;99118.63;;;8.45;100.00
69306;BME280;56427;51.580;4.656;2024-03-29T03:57:50;99130.56;;;8.33;100.00
69306;BME280;56427;51.580;4.656;2024-03-29T04:00:18;99129.88;;;8.31;100.00
69306;BME280;56427;51.580;4.656;2024-03-29T04:02:49;99125.94;;;8.25;100.00
69306;BME280;56427;51.580;4.656;2024-03-29T04:05:17;99126.88;;;8.24;100.00
69306;BME280;56427;51.580;4.656;2024-03-29T04:07:42;99127.75;;;8.23;100.00
69306;BME280;56427;51.580;4.656;2024-03-29T04:10:08;99131.38;;;8.21;100.00
69306;BME280;56427;51.580;4.656;2024-03-29T04:12:33;99134.19;;;8.18;100.00
69306;BME280;56427;51.580;4.656;2024-03-29T04:14:58;99133.84;;;8.09;100.00
69306;BME280;56427;51.580;4.656;2024-03-29T04:17:24;99132.09;;;8.10;100.00
69306;BME280;56427;51.580;4.656;2024-03-29T04:19:49;99138.59;;;8.03;100.00
69306;BME280;56427;51.580;4.656;2024-03-29T04:22:14;99131.97;;;7.99;100.00
69306;BME280;56427;51.580;4.656;2024-03-29T04:24:39;99131.88;;;8.00;100.00
69306;BME280;56427;51.580;4.656;2024-03-29T04:27:05;99134.47;;;8.00;100.00
69306;BME280;56427;51.580;4.656;2024-03-29T04:29:30;99128.06;;;8.06;100.00
69306;BME280;56427;51.580;4.656;2024-03-29T04:31:55;99134.16;;;8.05;100.00
69306;BME280;56427;51.580;4.656;2024-03-29T04:34:20;99137.56;;;8.05;100.00
69306;BME280;56427;51.580;4.656;2024-03-29T04:36:46;99118.69;;;8.05;100.00
69306;BME280;56427;51.580;4.656;2024-03-29T04:39:11;99132.59;;;8.02;100.00
69306;BME280;56427;51.580;4.656;2024-03-29T04:41:36;99131.66;;;8.03;100.00
69306;BME280;56427;51.580;4.656;2024-03-29T04:44:02;99130.00;;;8.02;100.00
69306;BME280;56427;51.580;4.656;2024-03-29T04:46:30;99127.22;;;7.93;100.00
69306;BME280;56427;51.580;4.656;2024-03-29T04:48:55;99119.66;;;7.90;100.00
69306;BME280;56427;51.580;4.656;2024-03-29T04:51:20;99126.25;;;7.81;100.00
69306;BME280;56427;51.580;4.656;2024-03-29T04:53:46;99115.09;;;7.80;100.00
69306;BME280;56427;51.580;4.656;2024-03-29T04:56:11;99118.78;;;7.76;100.00
69306;BME280;56427;51.580;4.656;2024-03-29T04:58:36;99120.66;;;7.74;100.00
69306;BME280;56427;51.580;4.656;2024-03-29T05:01:02;99109.78;;;7.69;100.00
69306;BME280;56427;51.580;4.656;2024-03-29T05:03:27;99126.09;;;7.70;100.00
69306;BME280;56427;51.580;4.656;2024-03-29T05:05:53;99118.75;;;7.64;100.00
69306;BME280;56427;51.580;4.656;2024-03-29T05:08:19;99103.56;;;7.59;100.00
69306;BME280;56427;51.580;4.656;2024-03-29T05:10:46;99120.06;;;7.56;100.00
69306;BME280;56427;51.580;4.656;2024-03-29T05:13:12;99133.81;;;7.57;100.00
69306;BME280;56427;51.580;4.656;2024-03-29T05:15:37;99139.06;;;7.55;100.00
69306;BME280;56427;51.580;4.656;2024-03-29T05:18:02;99137.81;;;7.48;100.00
69306;BME280;56427;51.580;4.656;2024-03-29T05:20:28;99126.00;;;7.44;100.00
69306;BME280;56427;51.580;4.656;2024-03-29T05:22:54;99129.31;;;7.46;100.00
69306;BME280;56427;51.580;4.656;2024-03-29T05:25:19;99119.38;;;7.40;100.00
69306;BME280;56427;51.580;4.656;2024-03-29T05:27:44;99133.75;;;7.44;100.00
69306;BME280;56427;51.580;4.656;2024-03-29T05:30:10;99132.56;;;7.36;100.00
69306;BME280;56427;51.580;4.656;2024-03-29T05:32:36;99126.50;;;7.37;100.00
69306;BME280;56427;51.580;4.656;2024-03-29T05:35:01;99137.34;;;7.42;100.00
69306;BME280;56427;51.580;4.656;2024-03-29T05:37:27;99140.22;;;7.37;100.00
69306;BME280;56427;51.580;4.656;2024-03-29T05:39:53;99137.09;;;7.32;100.00
69306;BME280;56427;51.580;4.656;2024-03-29T05:42:29;99140.94;;;7.39;100.00
69306;BME280;56427;51.580;4.656;2024-03-29T05:44:55;99147.31;;;7.34;100.00
69306;BME280;56427;51.580;4.656;2024-03-29T05:47:21;99143.50;;;7.39;100.00
69306;BME280;56427;51.580;4.656;2024-03-29T05:49:47;99168.69;;;7.36;100.00
69306;BME280;56427;51.580;4.656;2024-03-29T05:52:13;99171.16;;;7.37;100.00
69306;BME280;56427;51.580;4.656;2024-03-29T05:54:39;99164.34;;;7.36;100.00
69306;BME280;56427;51.580;4.656;2024-03-29T05:57:05;99174.56;;;7.38;100.00
69306;BME280;56427;51.580;4.656;2024-03-29T05:59:32;99176.50;;;7.34;100.00
69306;BME280;56427;51.580;4.656;2024-03-29T06:01:57;99171.53;;;7.31;100.00
69306;BME280;56427;51.580;4.656;2024-03-29T06:04:23;99173.09;;;7.34;100.00
69306;BME280;56427;51.580;4.656;2024-03-29T06:06:55;99175.69;;;7.34;100.00
69306;BME280;56427;51.580;4.656;2024-03-29T06:09:21;99171.88;;;7.39;100.00
69306;BME280;56427;51.580;4.656;2024-03-29T06:11:46;99163.16;;;7.42;100.00
69306;BME280;56427;51.580;4.656;2024-03-29T06:14:11;99168.38;;;7.40;100.00
69306;BME280;56427;51.580;4.656;2024-03-29T06:16:37;99181.94;;;7.44;100.00
69306;BME280;56427;51.580;4.656;2024-03-29T06:19:21;99185.88;;;7.49;100.00
69306;BME280;56427;51.580;4.656;2024-03-29T06:21:46;99192.97;;;7.46;100.00
69306;BME280;56427;51.580;4.656;2024-03-29T06:24:12;99186.50;;;7.53;100.00
69306;BME280;56427;51.580;4.656;2024-03-29T06:26:38;99192.31;;;7.56;100.00
69306;BME280;56427;51.580;4.656;2024-03-29T06:29:03;99194.69;;;7.60;100.00
69306;BME280;56427;51.580;4.656;2024-03-29T06:31:29;99184.91;;;7.65;100.00
69306;BME280;56427;51.580;4.656;2024-03-29T06:33:55;99196.44;;;7.59;100.00
69306;BME280;56427;51.580;4.656;2024-03-29T06:36:20;99196.38;;;7.61;100.00
69306;BME280;56427;51.580;4.656;2024-03-29T06:38:46;99188.25;;;7.52;100.00
69306;BME280;56427;51.580;4.656;2024-03-29T06:41:11;99159.38;;;7.74;100.00
69306;BME280;56427;51.580;4.656;2024-03-29T06:43:37;99155.91;;;7.88;100.00
69306;BME280;56427;51.580;4.656;2024-03-29T06:46:02;99165.53;;;7.72;100.00
69306;BME280;56427;51.580;4.656;2024-03-29T06:48:29;99161.47;;;7.82;100.00
69306;BME280;56427;51.580;4.656;2024-03-29T06:50:56;99175.94;;;7.97;100.00
69306;BME280;56427;51.580;4.656;2024-03-29T06:53:21;99161.66;;;8.19;100.00
69306;BME280;56427;51.580;4.656;2024-03-29T06:55:47;99164.69;;;8.25;100.00
69306;BME280;56427;51.580;4.656;2024-03-29T06:58:13;99164.50;;;8.41;100.00
69306;BME280;56427;51.580;4.656;2024-03-29T07:00:39;99176.59;;;8.41;100.00
69306;BME280;56427;51.580;4.656;2024-03-29T07:03:04;99184.88;;;8.46;100.00
69306;BME280;56427;51.580;4.656;2024-03-29T07:05:29;99189.13;;;8.47;100.00
69306;BME280;56427;51.580;4.656;2024-03-29T07:07:55;99196.88;;;8.59;100.00
69306;BME280;56427;51.580;4.656;2024-03-29T07:10:21;99193.19;;;8.24;100.00
69306;BME280;56427;51.580;4.656;2024-03-29T07:12:46;99192.22;;;8.39;100.00
69306;BME280;56427;51.580;4.656;2024-03-29T07:15:11;99199.50;;;8.32;100.00
69306;BME280;56427;51.580;4.656;2024-03-29T07:17:37;99194.34;;;8.32;100.00
69306;BME280;56427;51.580;4.656;2024-03-29T07:20:03;99200.91;;;8.38;100.00
69306;BME280;56427;51.580;4.656;2024-03-29T07:22:30;99208.97;;;8.46;100.00
69306;BME280;56427;51.580;4.656;2024-03-29T07:24:55;99205.41;;;8.34;100.00
69306;BME280;56427;51.580;4.656;2024-03-29T07:27:21;99202.09;;;8.32;100.00
69306;BME280;56427;51.580;4.656;2024-03-29T07:29:46;99191.75;;;8.32;100.00
69306;BME280;56427;51.580;4.656;2024-03-29T07:32:11;99190.69;;;8.36;100.00
69306;BME280;56427;51.580;4.656;2024-03-29T07:34:36;99206.19;;;8.49;100.00
69306;BME280;56427;51.580;4.656;2024-03-29T07:37:04;99203.81;;;8.59;100.00
69306;BME280;56427;51.580;4.656;2024-03-29T07:39:29;99208.88;;;8.73;100.00
69306;BME280;56427;51.580;4.656;2024-03-29T07:41:55;99203.94;;;8.57;100.00
69306;BME280;56427;51.580;4.656;2024-03-29T07:44:20;99199.28;;;8.50;100.00
69306;BME280;56427;51.580;4.656;2024-03-29T07:46:46;99198.03;;;8.43;100.00
69306;BME280;56427;51.580;4.656;2024-03-29T07:49:13;99193.69;;;8.43;100.00
69306;BME280;56427;51.580;4.656;2024-03-29T07:51:39;99200.09;;;8.50;100.00
69306;BME280;56427;51.580;4.656;2024-03-29T07:54:04;99194.41;;;8.71;100.00
69306;BME280;56427;51.580;4.656;2024-03-29T07:56:30;99205.06;;;8.79;100.00
69306;BME280;56427;51.580;4.656;2024-03-29T07:58:55;99195.13;;;8.98;100.00
69306;BME280;56427;51.580;4.656;2024-03-29T08:01:21;99215.41;;;8.66;100.00
69306;BME280;56427;51.580;4.656;2024-03-29T08:03:47;99218.09;;;8.77;100.00
69306;BME280;56427;51.580;4.656;2024-03-29T08:06:15;99207.03;;;8.50;100.00
69306;BME280;56427;51.580;4.656;2024-03-29T08:08:43;99209.38;;;8.53;100.00
69306;BME280;56427;51.580;4.656;2024-03-29T08:11:08;99200.41;;;8.58;100.00
69306;BME280;56427;51.580;4.656;2024-03-29T08:13:35;99206.31;;;8.73;100.00
69306;BME280;56427;51.580;4.656;2024-03-29T08:16:01;99220.59;;;8.79;100.00
69306;BME280;56427;51.580;4.656;2024-03-29T08:18:27;99227.41;;;8.80;100.00
69306;BME280;56427;51.580;4.656;2024-03-29T08:20:53;99228.66;;;9.12;100.00
69306;BME280;56427;51.580;4.656;2024-03-29T08:23:22;99237.25;;;9.13;100.00
69306;BME280;56427;51.580;4.656;2024-03-29T08:25:48;99231.66;;;9.06;100.00
69306;BME280;56427;51.580;4.656;2024-03-29T08:28:14;99229.25;;;9.29;100.00
69306;BME280;56427;51.580;4.656;2024-03-29T08:30:40;99228.84;;;10.08;100.00
69306;BME280;56427;51.580;4.656;2024-03-29T08:33:05;99223.66;;;10.67;100.00
69306;BME280;56427;51.580;4.656;2024-03-29T08:35:32;99236.25;;;10.61;100.00
69306;BME280;56427;51.580;4.656;2024-03-29T08:37:58;99229.38;;;10.48;100.00
69306;BME280;56427;51.580;4.656;2024-03-29T08:40:23;99226.75;;;10.84;100.00
69306;BME280;56427;51.580;4.656;2024-03-29T08:42:50;99232.56;;;11.54;100.00
69306;BME280;56427;51.580;4.656;2024-03-29T08:45:15;99240.13;;;11.46;100.00
69306;BME280;56427;51.580;4.656;2024-03-29T08:47:40;99246.94;;;10.45;100.00
69306;BME280;56427;51.580;4.656;2024-03-29T08:50:06;99250.41;;;10.33;100.00
69306;BME280;56427;51.580;4.656;2024-03-29T08:52:31;99270.72;;;10.39;100.00
69306;BME280;56427;51.580;4.656;2024-03-29T08:54:57;99253.81;;;10.09;100.00
69306;BME280;56427;51.580;4.656;2024-03-29T08:57:22;99247.53;;;11.06;100.00
69306;BME280;56427;51.580;4.656;2024-03-29T08:59:47;99247.41;;;10.96;100.00
69306;BME280;56427;51.580;4.656;2024-03-29T09:02:13;99253.19;;;11.11;100.00
69306;BME280;56427;51.580;4.656;2024-03-29T09:04:38;99250.97;;;10.60;100.00
69306;BME280;56427;51.580;4.656;2024-03-29T09:07:03;99260.53;;;11.28;100.00
69306;BME280;56427;51.580;4.656;2024-03-29T09:09:29;99251.22;;;11.59;100.00
69306;BME280;56427;51.580;4.656;2024-03-29T09:11:55;99264.28;;;12.03;100.00
69306;BME280;56427;51.580;4.656;2024-03-29T09:14:21;99266.41;;;11.75;100.00
69306;BME280;56427;51.580;4.656;2024-03-29T09:16:46;99280.13;;;11.21;100.00
69306;BME280;56427;51.580;4.656;2024-03-29T09:19:14;99274.94;;;11.21;100.00
69306;BME280;56427;51.580;4.656;2024-03-29T09:21:40;99262.19;;;11.29;100.00
69306;BME280;56427;51.580;4.656;2024-03-29T09:24:05;99265.59;;;11.30;100.00
69306;BME280;56427;51.580;4.656;2024-03-29T09:26:32;99273.81;;;10.90;100.00
69306;BME280;56427;51.580;4.656;2024-03-29T09:28:57;99276.34;;;11.14;100.00
69306;BME280;56427;51.580;4.656;2024-03-29T09:31:22;99264.53;;;11.10;100.00
69306;BME280;56427;51.580;4.656;2024-03-29T09:33:48;99284.72;;;11.29;100.00
69306;BME280;56427;51.580;4.656;2024-03-29T09:36:19;99279.88;;;11.35;100.00
69306;BME280;56427;51.580;4.656;2024-03-29T09:38:45;99292.75;;;11.48;100.00
69306;BME280;56427;51.580;4.656;2024-03-29T09:41:16;99290.75;;;11.52;100.00
69306;BME280;56427;51.580;4.656;2024-03-29T09:43:42;99300.75;;;11.23;100.00
69306;BME280;56427;51.580;4.656;2024-03-29T09:46:12;99296.41;;;11.34;100.00
69306;BME280;56427;51.580;4.656;2024-03-29T09:48:39;99291.47;;;11.54;100.00
69306;BME280;56427;51.580;4.656;2024-03-29T09:51:06;99287.44;;;11.50;100.00
69306;BME280;56427;51.580;4.656;2024-03-29T09:53:34;99273.97;;;11.78;100.00
69306;BME280;56427;51.580;4.656;2024-03-29T09:56:00;99264.25;;;12.88;96.98
69306;BME280;56427;51.580;4.656;2024-03-29T09:58:25;99266.09;;;13.18;93.92
69306;BME280;56427;51.580;4.656;2024-03-29T10:00:50;99256.69;;;13.57;91.56
69306;BME280;56427;51.580;4.656;2024-03-29T10:03:16;99263.50;;;13.89;87.61
69306;BME280;56427;51.580;4.656;2024-03-29T10:05:46;99287.56;;;14.02;88.01
69306;BME280;56427;51.580;4.656;2024-03-29T10:08:12;99289.19;;;13.02;90.05
69306;BME280;56427;51.580;4.656;2024-03-29T10:10:38;99295.22;;;13.54;87.07
69306;BME280;56427;51.580;4.656;2024-03-29T10:13:04;99290.09;;;13.73;84.73
69306;BME280;56427;51.580;4.656;2024-03-29T10:15:30;99301.38;;;13.22;88.72
69306;BME280;56427;51.580;4.656;2024-03-29T10:18:02;99291.31;;;12.76;88.72
69306;BME280;56427;51.580;4.656;2024-03-29T10:20:28;99291.19;;;12.77;86.14
69306;BME280;56427;51.580;4.656;2024-03-29T10:22:53;99306.19;;;13.57;84.73
69306;BME280;56427;51.580;4.656;2024-03-29T10:25:20;99301.03;;;13.15;87.02
69306;BME280;56427;51.580;4.656;2024-03-29T10:27:46;99303.09;;;13.33;88.03
69306;BME280;56427;51.580;4.656;2024-03-29T10:30:11;99278.69;;;13.34;85.99
69306;BME280;56427;51.580;4.656;2024-03-29T10:32:42;99284.09;;;14.01;80.66
69306;BME280;56427;51.580;4.656;2024-03-29T10:35:08;99296.91;;;14.04;77.47
69306;BME280;56427;51.580;4.656;2024-03-29T10:37:34;99299.28;;;14.27;75.70
69306;BME280;56427;51.580;4.656;2024-03-29T10:40:14;99306.69;;;14.22;75.97
69306;BME280;56427;51.580;4.656;2024-03-29T10:42:41;99313.09;;;14.08;76.44
69306;BME280;56427;51.580;4.656;2024-03-29T10:45:07;99303.22;;;14.12;76.29
69306;BME280;56427;51.580;4.656;2024-03-29T10:47:33;99323.78;;;14.84;74.67
69306;BME280;56427;51.580;4.656;2024-03-29T10:49:59;99346.44;;;15.03;71.00
69306;BME280;56427;51.580;4.656;2024-03-29T10:52:25;99345.94;;;14.30;75.03
69306;BME280;56427;51.580;4.656;2024-03-29T10:54:51;99347.25;;;13.95;75.27
69306;BME280;56427;51.580;4.656;2024-03-29T10:57:27;99337.97;;;13.72;77.05
69306;BME280;56427;51.580;4.656;2024-03-29T11:02:38;99339.28;;;14.07;75.31
69306;BME280;56427;51.580;4.656;2024-03-29T11:05:09;99320.47;;;13.63;76.08
69306;BME280;56427;51.580;4.656;2024-03-29T11:07:39;99304.75;;;13.74;77.42
69306;BME280;56427;51.580;4.656;2024-03-29T11:10:05;99314.94;;;13.46;76.86
69306;BME280;56427;51.580;4.656;2024-03-29T11:12:41;99316.63;;;13.97;76.97
69306;BME280;56427;51.580;4.656;2024-03-29T11:15:12;99313.47;;;13.94;75.04
69306;BME280;56427;51.580;4.656;2024-03-29T11:17:42;99316.66;;;13.67;76.13
69306;BME280;56427;51.580;4.656;2024-03-29T11:20:08;99318.00;;;13.52;77.03
69306;BME280;56427;51.580;4.656;2024-03-29T11:22:34;99322.28;;;14.12;77.24
69306;BME280;56427;51.580;4.656;2024-03-29T11:25:00;99326.53;;;14.53;74.21
69306;BME280;56427;51.580;4.656;2024-03-29T11:27:26;99332.88;;;14.20;75.35
69306;BME280;56427;51.580;4.656;2024-03-29T11:29:52;99334.69;;;14.39;71.65
69306;BME280;56427;51.580;4.656;2024-03-29T11:32:37;99339.03;;;14.79;72.20
69306;BME280;56427;51.580;4.656;2024-03-29T11:35:04;99327.09;;;14.07;72.79
69306;BME280;56427;51.580;4.656;2024-03-29T11:37:31;99339.16;;;14.87;71.13
69306;BME280;56427;51.580;4.656;2024-03-29T11:40:00;99323.63;;;14.56;69.69
69306;BME280;56427;51.580;4.656;2024-03-29T11:42:47;99340.09;;;13.97;73.48
69306;BME280;56427;51.580;4.656;2024-03-29T11:45:12;99351.75;;;14.34;73.85
69306;BME280;56427;51.580;4.656;2024-03-29T11:47:41;99355.13;;;14.15;74.12
69306;BME280;56427;51.580;4.656;2024-03-29T11:50:08;99350.94;;;13.93;74.34
69306;BME280;56427;51.580;4.656;2024-03-29T11:52:33;99354.41;;;14.13;74.93
69306;BME280;56427;51.580;4.656;2024-03-29T11:54:59;99349.91;;;14.24;74.24
69306;BME280;56427;51.580;4.656;2024-03-29T11:57:24;99358.59;;;14.35;73.11
69306;BME280;56427;51.580;4.656;2024-03-29T11:59:50;99349.53;;;14.29;71.47
69306;BME280;56427;51.580;4.656;2024-03-29T12:02:15;99352.34;;;14.07;74.84
69306;BME280;56427;51.580;4.656;2024-03-29T12:04:41;99353.69;;;14.51;71.12
69306;BME280;56427;51.580;4.656;2024-03-29T12:07:06;99345.84;;;14.41;71.19
69306;BME280;56427;51.580;4.656;2024-03-29T12:09:32;99343.28;;;14.99;70.39
69306;BME280;56427;51.580;4.656;2024-03-29T12:11:57;99338.59;;;14.74;70.89
69306;BME280;56427;51.580;4.656;2024-03-29T12:14:25;99341.22;;;15.03;67.78
69306;BME280;56427;51.580;4.656;2024-03-29T12:16:52;99328.69;;;15.06;67.64
69306;BME280;56427;51.580;4.656;2024-03-29T12:19:25;99339.16;;;15.63;63.07
69306;BME280;56427;51.580;4.656;2024-03-29T12:21:53;99348.06;;;15.14;63.67
69306;BME280;56427;51.580;4.656;2024-03-29T12:24:20;99331.44;;;15.05;61.99
69306;BME280;56427;51.580;4.656;2024-03-29T12:26:48;99338.44;;;15.14;63.54
69306;BME280;56427;51.580;4.656;2024-03-29T12:29:13;99332.88;;;15.46;61.34
69306;BME280;56427;51.580;4.656;2024-03-29T12:31:39;99336.38;;;15.74;61.09
69306;BME280;56427;51.580;4.656;2024-03-29T12:34:04;99354.41;;;15.58;61.69
69306;BME280;56427;51.580;4.656;2024-03-29T12:36:31;99364.13;;;15.28;60.11
69306;BME280;56427;51.580;4.656;2024-03-29T12:38:58;99350.31;;;15.65;59.52
69306;BME280;56427;51.580;4.656;2024-03-29T12:41:29;99354.41;;;15.58;59.49
69306;BME280;56427;51.580;4.656;2024-03-29T12:43:54;99364.81;;;15.21;60.79
69306;BME280;56427;51.580;4.656;2024-03-29T12:46:19;99361.13;;;15.23;60.04
69306;BME280;56427;51.580;4.656;2024-03-29T12:48:45;99353.31;;;15.04;60.68
69306;BME280;56427;51.580;4.656;2024-03-29T12:51:10;99359.19;;;15.25;61.52
69306;BME280;56427;51.580;4.656;2024-03-29T12:53:38;99343.19;;;15.38;60.00
69306;BME280;56427;51.580;4.656;2024-03-29T12:56:04;99341.50;;;15.66;59.90
69306;BME280;56427;51.580;4.656;2024-03-29T12:58:29;99361.72;;;15.64;59.77
69306;BME280;56427;51.580;4.656;2024-03-29T13:00:55;99362.59;;;16.19;59.76